Terminal Aerodrome Forecast
Issued by NWS

Home | Current Version | Previous Version | Text Only | Print | Product List | Glossary Off
Versions: 1 2 3 4 5 6 7 8 9 10 11 12 13 14 15 16 17 18 19 20

000
FTUS43 KGRB 262000 AAA
TAFAUW
TAF AMD
KAUW 262007Z 2620/2718 16009KT 1 1/2SM -SN BKN015 OVC026
      TEMPO 2620/2622 4SM -SN
     FM262200 14005KT 3SM -SN BR SCT009 OVC015
     FM270300 VRB03KT 5SM -FZDZSN BR OVC007
     FM270800 VRB03KT 6SM BR OVC007
     FM271700 VRB03KT P6SM BKN012=

USA.gov is the U.S. government's official web portal to all federal, state and local government web resources and services.